createdAt,value
2018-05-07T00:00:33.635Z,818.08
2018-05-07T00:01:33.648Z,818.06
2018-05-07T00:02:33.665Z,818.07
2018-05-07T00:03:33.684Z,818.03
2018-05-07T00:04:33.695Z,818.02
2018-05-07T00:05:33.710Z,818.01
2018-05-07T00:06:33.743Z,818.02
2018-05-07T00:07:33.742Z,817.97
2018-05-07T00:08:33.760Z,817.98
2018-05-07T00:09:33.894Z,817.97
2018-05-07T00:10:33.788Z,817.93
2018-05-07T00:11:33.882Z,817.95
2018-05-07T00:12:33.818Z,817.94
2018-05-07T00:13:33.834Z,817.92
2018-05-07T00:14:33.849Z,817.93
2018-05-07T00:15:33.866Z,817.93
2018-05-07T00:16:33.879Z,817.96
2018-05-07T00:17:33.902Z,817.92
2018-05-07T00:18:33.911Z,817.97
2018-05-07T00:19:33.927Z,817.91
2018-05-07T00:20:33.945Z,817.99
2018-05-07T00:21:33.958Z,817.97
2018-05-07T00:22:33.978Z,817.92
2018-05-07T00:23:33.989Z,817.95
2018-05-07T00:24:34.006Z,817.94
2018-05-07T00:25:34.021Z,817.97
2018-05-07T00:26:34.067Z,817.94
2018-05-07T00:27:34.050Z,817.92
2018-05-07T00:28:34.063Z,817.93
2018-05-07T00:29:34.079Z,817.92
2018-05-07T00:30:34.096Z,817.89
2018-05-07T00:31:34.111Z,817.90
2018-05-07T00:32:34.129Z,817.88
2018-05-07T00:33:34.141Z,817.87
2018-05-07T00:34:34.160Z,817.85
2018-05-07T00:35:34.172Z,817.87
2018-05-07T00:36:34.187Z,817.88
2018-05-07T00:37:34.201Z,817.84
2018-05-07T00:38:34.216Z,817.84
2018-05-07T00:39:34.233Z,817.84
2018-05-07T00:40:34.248Z,817.83
2018-05-07T00:41:34.264Z,817.84
2018-05-07T00:42:34.280Z,817.83
2018-05-07T00:43:34.295Z,817.83
2018-05-07T00:44:34.309Z,817.81
2018-05-07T00:45:34.325Z,817.82
2018-05-07T00:46:34.338Z,817.82
2018-05-07T00:47:34.356Z,817.81
2018-05-07T00:48:34.375Z,817.80
2018-05-07T00:49:34.385Z,817.76
2018-05-07T00:50:34.402Z,817.75
2018-05-07T00:51:34.418Z,817.72
2018-05-07T00:52:34.431Z,817.73
2018-05-07T00:53:34.449Z,817.73
2018-05-07T00:54:34.463Z,817.67
2018-05-07T00:55:34.479Z,817.62
2018-05-07T00:56:34.493Z,817.64
2018-05-07T00:57:34.509Z,817.65
2018-05-07T00:58:34.524Z,817.67
2018-05-07T00:59:34.540Z,817.63
2018-05-07T01:00:34.553Z,817.67
2018-05-07T01:01:34.571Z,817.65
2018-05-07T01:02:34.585Z,817.65
2018-05-07T01:03:34.602Z,817.68
2018-05-07T01:04:34.616Z,817.67
2018-05-07T01:05:34.632Z,817.63
2018-05-07T01:06:34.649Z,817.63
2018-05-07T01:07:34.663Z,817.65
2018-05-07T01:08:34.677Z,817.63
2018-05-07T01:09:34.700Z,817.63
2018-05-07T01:10:34.710Z,817.60
2018-05-07T01:11:34.725Z,817.65
2018-05-07T01:12:34.740Z,817.68
2018-05-07T01:13:34.813Z,817.58
2018-05-07T01:14:34.770Z,817.61
2018-05-07T01:15:34.791Z,817.61
2018-05-07T01:16:34.800Z,817.59
2018-05-07T01:17:34.815Z,817.60
2018-05-07T01:18:34.831Z,817.59
2018-05-07T01:19:34.845Z,817.56
2018-05-07T01:20:34.866Z,817.55
2018-05-07T01:21:34.876Z,817.58
2018-05-07T01:22:34.899Z,817.59
2018-05-07T01:23:34.908Z,817.59
2018-05-07T01:24:34.925Z,817.57
2018-05-07T01:25:34.937Z,817.58
2018-05-07T01:26:34.954Z,817.62
2018-05-07T01:27:34.970Z,817.60
2018-05-07T01:28:34.986Z,817.52
2018-05-07T01:29:34.999Z,817.58
2018-05-07T01:30:35.017Z,817.56
2018-05-07T01:31:35.036Z,817.55
2018-05-07T01:32:35.043Z,817.56
2018-05-07T01:33:35.061Z,817.53
2018-05-07T01:34:35.078Z,817.53
2018-05-07T01:35:35.093Z,817.56
2018-05-07T01:36:35.106Z,817.55
2018-05-07T01:37:35.120Z,817.55
2018-05-07T01:38:35.136Z,817.54
2018-05-07T01:39:35.153Z,817.55
2018-05-07T01:40:35.167Z,817.54
2018-05-07T01:41:35.182Z,817.55
2018-05-07T01:42:35.199Z,817.53
2018-05-07T01:43:35.212Z,817.54
2018-05-07T01:44:35.226Z,817.52
2018-05-07T01:45:35.242Z,817.50
2018-05-07T01:46:35.259Z,817.49
2018-05-07T01:47:35.273Z,817.47
2018-05-07T01:48:35.288Z,817.51
2018-05-07T01:49:35.302Z,817.49
2018-05-07T01:50:35.318Z,817.51
2018-05-07T01:51:35.337Z,817.48
2018-05-07T01:52:35.347Z,817.47
2018-05-07T01:53:35.364Z,817.47
2018-05-07T01:54:35.378Z,817.49
2018-05-07T01:55:35.393Z,817.48
2018-05-07T01:56:35.408Z,817.47
2018-05-07T01:57:35.422Z,817.47
2018-05-07T01:58:35.439Z,817.47
2018-05-07T01:59:35.518Z,817.44
2018-05-07T02:00:35.468Z,817.45
2018-05-07T02:01:35.481Z,817.48
2018-05-07T02:02:35.499Z,817.43
2018-05-07T02:03:35.513Z,817.47
2018-05-07T02:04:35.525Z,817.45
2018-05-07T02:05:35.542Z,817.45
2018-05-07T02:06:35.558Z,817.45
2018-05-07T02:07:35.572Z,817.45
2018-05-07T02:08:35.586Z,817.45
2018-05-07T02:09:35.602Z,817.47
2018-05-07T02:10:35.616Z,817.47
2018-05-07T02:11:35.633Z,817.43
2018-05-07T02:12:35.646Z,817.42
2018-05-07T02:13:35.662Z,817.39
2018-05-07T02:14:35.676Z,817.40
2018-05-07T02:15:35.693Z,817.40
2018-05-07T02:16:35.706Z,817.39
2018-05-07T02:17:35.721Z,817.41
2018-05-07T02:18:35.736Z,817.40
2018-05-07T02:19:35.748Z,817.40
2018-05-07T02:20:35.769Z,817.38
2018-05-07T02:21:35.780Z,817.39
2018-05-07T02:22:35.793Z,817.38
2018-05-07T02:23:35.809Z,817.31
2018-05-07T02:24:35.824Z,817.32
2018-05-07T02:25:35.839Z,817.33
2018-05-07T02:26:35.854Z,817.34
2018-05-07T02:27:35.871Z,817.33
2018-05-07T02:28:35.887Z,817.31
2018-05-07T02:29:35.897Z,817.31
2018-05-07T02:30:35.913Z,817.31
2018-05-07T02:31:35.930Z,817.34
2018-05-07T02:32:35.941Z,817.36
2018-05-07T02:33:35.960Z,817.36
2018-05-07T02:34:35.971Z,817.34
2018-05-07T02:35:35.986Z,817.35
2018-05-07T02:36:36.002Z,817.40
2018-05-07T02:37:36.018Z,817.42
2018-05-07T02:38:36.031Z,817.37
2018-05-07T02:39:36.044Z,817.39
2018-05-07T02:40:36.059Z,817.36
2018-05-07T02:41:36.073Z,817.38
2018-05-07T02:42:36.089Z,817.35
2018-05-07T02:43:36.103Z,817.36
2018-05-07T02:44:36.115Z,817.37
2018-05-07T02:45:36.131Z,817.36
2018-05-07T02:46:36.145Z,817.35
2018-05-07T02:47:36.158Z,817.36
2018-05-07T02:48:36.173Z,817.35
2018-05-07T02:49:36.188Z,817.32
2018-05-07T02:50:36.202Z,817.33
2018-05-07T02:51:36.220Z,817.30
2018-05-07T02:52:36.232Z,817.28
2018-05-07T02:53:36.246Z,817.29
2018-05-07T02:54:36.261Z,817.27
2018-05-07T02:55:36.274Z,817.29
2018-05-07T02:56:36.287Z,817.28
2018-05-07T02:57:36.306Z,817.27
2018-05-07T02:58:36.321Z,817.27
2018-05-07T02:59:36.331Z,817.27
2018-05-07T03:00:36.345Z,817.25
2018-05-07T03:01:36.363Z,817.28
2018-05-07T03:02:36.375Z,817.26
2018-05-07T03:03:36.390Z,817.29
2018-05-07T03:04:36.402Z,817.24
2018-05-07T03:05:36.427Z,817.26
2018-05-07T03:06:36.431Z,817.20
2018-05-07T03:07:36.449Z,817.21
2018-05-07T03:08:36.461Z,817.23
2018-05-07T03:09:36.482Z,817.19
2018-05-07T03:10:36.490Z,817.18
2018-05-07T03:11:36.504Z,817.23
2018-05-07T03:12:36.516Z,817.21
2018-05-07T03:13:36.532Z,817.20
2018-05-07T03:14:36.555Z,817.17
2018-05-07T03:15:36.562Z,817.21
2018-05-07T03:16:36.576Z,817.17
2018-05-07T03:17:36.657Z,817.18
2018-05-07T03:18:36.604Z,817.18
2018-05-07T03:19:36.619Z,817.17
2018-05-07T03:20:36.632Z,817.17
2018-05-07T03:21:36.645Z,817.16
2018-05-07T03:22:36.659Z,817.15
2018-05-07T03:23:36.676Z,817.12
2018-05-07T03:24:36.689Z,817.15
2018-05-07T03:25:36.704Z,817.15
2018-05-07T03:26:36.720Z,817.12
2018-05-07T03:27:36.734Z,817.13
2018-05-07T03:28:36.744Z,817.12
2018-05-07T03:29:36.760Z,817.12
2018-05-07T03:30:36.774Z,817.13
2018-05-07T03:31:36.789Z,817.14
2018-05-07T03:32:36.801Z,817.14
2018-05-07T03:33:36.816Z,817.14
2018-05-07T03:34:36.830Z,817.10
2018-05-07T03:35:36.845Z,817.12
2018-05-07T03:36:36.860Z,817.12
2018-05-07T03:37:36.871Z,817.12
2018-05-07T03:38:36.892Z,817.13
2018-05-07T03:39:36.908Z,817.13
2018-05-07T03:40:37.017Z,817.12
2018-05-07T03:41:36.928Z,817.13
2018-05-07T03:42:36.942Z,817.12
2018-05-07T03:43:36.957Z,817.10
2018-05-07T03:44:36.970Z,817.07
2018-05-07T03:45:36.990Z,817.09
2018-05-07T03:46:37.000Z,817.07
2018-05-07T03:47:37.015Z,817.06
2018-05-07T03:48:37.098Z,817.06
2018-05-07T03:49:37.042Z,817.05
2018-05-07T03:50:37.058Z,817.05
2018-05-07T03:51:37.071Z,817.00
2018-05-07T03:52:37.086Z,817.03
2018-05-07T03:53:37.100Z,817.03
2018-05-07T03:54:37.121Z,817.00
2018-05-07T03:55:37.133Z,817.02
2018-05-07T03:56:37.142Z,817.00
2018-05-07T03:57:37.158Z,816.99
2018-05-07T03:58:37.170Z,816.97
2018-05-07T03:59:37.246Z,816.98
2018-05-07T04:00:37.199Z,816.97
2018-05-07T04:01:37.216Z,816.96
2018-05-07T04:02:37.227Z,816.96
2018-05-07T04:03:37.247Z,816.97
2018-05-07T04:04:37.256Z,816.94
2018-05-07T04:05:37.348Z,816.95
2018-05-07T04:06:37.285Z,816.99
2018-05-07T04:07:37.302Z,816.99
2018-05-07T04:08:37.314Z,816.99
2018-05-07T04:09:37.331Z,816.99
2018-05-07T04:10:37.343Z,816.98
2018-05-07T04:11:37.357Z,816.98
2018-05-07T04:12:37.370Z,816.97
2018-05-07T04:13:37.386Z,817.00
2018-05-07T04:14:37.401Z,817.00
2018-05-07T04:15:37.415Z,816.97
2018-05-07T04:16:37.427Z,816.99
2018-05-07T04:17:37.443Z,816.99
2018-05-07T04:18:37.458Z,817.00
2018-05-07T04:19:37.473Z,816.97
2018-05-07T04:20:37.486Z,816.95
2018-05-07T04:21:37.501Z,816.95
2018-05-07T04:22:37.515Z,816.97
2018-05-07T04:23:37.529Z,816.95
2018-05-07T04:24:37.543Z,816.96
2018-05-07T04:25:37.559Z,816.94
2018-05-07T04:26:37.576Z,816.92
2018-05-07T04:27:37.587Z,816.95
2018-05-07T04:28:37.602Z,816.98
2018-05-07T04:29:37.616Z,816.98
2018-05-07T04:30:37.631Z,816.99
2018-05-07T04:31:37.646Z,816.94
2018-05-07T04:32:37.660Z,816.96
2018-05-07T04:33:37.701Z,816.95
2018-05-07T04:34:37.688Z,816.97
2018-05-07T04:35:37.703Z,817.03
2018-05-07T04:36:37.718Z,817.01
2018-05-07T04:37:37.732Z,817.00
2018-05-07T04:38:37.747Z,816.99
2018-05-07T04:39:37.761Z,817.00
2018-05-07T04:40:37.774Z,817.04
2018-05-07T04:41:37.790Z,816.97
2018-05-07T04:42:37.805Z,816.98
2018-05-07T04:43:37.819Z,817.00
2018-05-07T04:44:37.833Z,816.96
2018-05-07T04:45:37.847Z,816.94
2018-05-07T04:46:37.862Z,816.96
2018-05-07T04:47:37.876Z,816.95
2018-05-07T04:48:37.891Z,816.97
2018-05-07T04:49:37.904Z,816.94
2018-05-07T04:50:37.918Z,816.93
2018-05-07T04:51:37.934Z,816.94
2018-05-07T04:52:37.947Z,816.93
2018-05-07T04:53:37.963Z,816.92
2018-05-07T04:54:37.979Z,816.93
2018-05-07T04:55:37.991Z,816.91
2018-05-07T04:56:38.010Z,816.92
2018-05-07T04:57:38.021Z,816.93
2018-05-07T04:58:38.040Z,816.93
2018-05-07T04:59:38.049Z,816.98
2018-05-07T05:00:38.064Z,816.95
2018-05-07T05:01:38.079Z,816.93
2018-05-07T05:02:38.092Z,816.90
2018-05-07T05:03:38.107Z,816.93
2018-05-07T05:04:38.121Z,816.95
2018-05-07T05:05:38.136Z,816.93
2018-05-07T05:06:38.150Z,816.94
2018-05-07T05:07:38.165Z,816.94
2018-05-07T05:08:38.179Z,816.93
2018-05-07T05:09:38.192Z,816.95
2018-05-07T05:10:38.209Z,816.94
2018-05-07T05:11:38.228Z,816.91
2018-05-07T05:12:38.237Z,816.94
2018-05-07T05:13:38.252Z,816.93
2018-05-07T05:14:38.266Z,816.92
2018-05-07T05:15:38.281Z,816.95
2018-05-07T05:16:38.296Z,816.94
2018-05-07T05:17:38.310Z,816.90
2018-05-07T05:18:38.324Z,816.92
2018-05-07T05:19:38.339Z,816.95
2018-05-07T05:20:38.356Z,816.98
2018-05-07T05:21:38.369Z,816.96
2018-05-07T05:22:38.384Z,816.95
2018-05-07T05:23:38.396Z,816.95
2018-05-07T05:24:38.412Z,816.95
2018-05-07T05:25:38.425Z,816.94
2018-05-07T05:26:38.441Z,816.96
2018-05-07T05:27:38.454Z,816.92
2018-05-07T05:28:38.468Z,816.97
2018-05-07T05:29:38.484Z,816.91
2018-05-07T05:30:38.500Z,816.96
2018-05-07T05:31:38.512Z,816.93
2018-05-07T05:32:38.527Z,816.96
2018-05-07T05:33:38.544Z,816.98
2018-05-07T05:34:38.558Z,816.99
2018-05-07T05:35:38.571Z,816.99
2018-05-07T05:36:38.586Z,816.99
2018-05-07T05:37:38.605Z,816.97
2018-05-07T05:38:38.615Z,816.98
2018-05-07T05:39:38.630Z,817.02
2018-05-07T05:40:38.645Z,817.02
2018-05-07T05:41:38.659Z,817.01
2018-05-07T05:42:38.677Z,817.03
2018-05-07T05:43:38.802Z,816.99
2018-05-07T05:44:38.706Z,817.03
2018-05-07T05:45:38.717Z,817.00
2018-05-07T05:46:38.738Z,817.04
2018-05-07T05:47:38.747Z,817.01
2018-05-07T05:48:38.760Z,817.01
2018-05-07T05:49:38.778Z,817.05
2018-05-07T05:50:38.791Z,817.02
2018-05-07T05:51:38.809Z,817.00
2018-05-07T05:52:38.819Z,816.98
2018-05-07T05:53:38.835Z,817.03
2018-05-07T05:54:38.851Z,817.04
2018-05-07T05:55:38.866Z,817.06
2018-05-07T05:56:38.880Z,817.02
2018-05-07T05:57:38.893Z,817.05
2018-05-07T05:58:38.908Z,817.03
2018-05-07T05:59:38.936Z,817.02
2018-05-07T06:00:38.937Z,817.02
2018-05-07T06:01:38.953Z,817.03
2018-05-07T06:02:38.969Z,817.02
2018-05-07T06:03:39.056Z,817.04
2018-05-07T06:04:38.999Z,817.04
2018-05-07T06:05:39.014Z,817.03
2018-05-07T06:06:39.029Z,817.03
2018-05-07T06:07:39.047Z,817.02
2018-05-07T06:08:39.058Z,817.02
2018-05-07T06:09:39.072Z,817.08
2018-05-07T06:10:39.087Z,817.08
2018-05-07T06:11:39.104Z,817.07
2018-05-07T06:12:39.128Z,817.07
2018-05-07T06:13:39.133Z,817.03
2018-05-07T06:14:39.211Z,817.03
2018-05-07T06:15:39.163Z,817.01
2018-05-07T06:16:39.177Z,817.05
2018-05-07T06:17:39.194Z,817.07
2018-05-07T06:18:39.207Z,817.09
2018-05-07T06:19:39.224Z,817.08
2018-05-07T06:20:39.237Z,817.05
2018-05-07T06:21:39.299Z,817.03
2018-05-07T06:22:39.267Z,817.05
2018-05-07T06:23:39.282Z,817.06
2018-05-07T06:24:39.296Z,817.04
2018-05-07T06:25:39.311Z,817.05
2018-05-07T06:26:39.330Z,817.04
2018-05-07T06:27:39.340Z,817.05
2018-05-07T06:28:39.363Z,817.07
2018-05-07T06:29:39.370Z,817.07
2018-05-07T06:30:39.387Z,817.07
2018-05-07T06:31:39.403Z,817.10
2018-05-07T06:32:39.415Z,817.11
2018-05-07T06:33:39.430Z,817.07
2018-05-07T06:34:39.447Z,817.06
2018-05-07T06:35:39.463Z,817.07
2018-05-07T06:36:39.475Z,817.06
2018-05-07T06:37:39.490Z,817.03
2018-05-07T06:38:39.503Z,817.01
2018-05-07T06:39:39.519Z,817.01
2018-05-07T06:40:39.535Z,816.99
2018-05-07T06:41:39.551Z,817.01
2018-05-07T06:42:39.566Z,817.03
2018-05-07T06:43:39.578Z,817.03
2018-05-07T06:44:39.595Z,817.02
2018-05-07T06:45:39.655Z,817.02
2018-05-07T06:46:39.627Z,817.03
2018-05-07T06:47:39.637Z,817.01
2018-05-07T06:48:39.656Z,817.02
2018-05-07T06:49:39.668Z,817.00
2018-05-07T06:50:39.683Z,817.03
2018-05-07T06:51:39.698Z,817.04
2018-05-07T06:52:39.713Z,817.03
2018-05-07T06:53:39.728Z,817.03
2018-05-07T06:54:39.743Z,817.01
2018-05-07T06:55:39.758Z,817.04
2018-05-07T06:56:39.775Z,817.00
2018-05-07T06:57:39.787Z,817.02
2018-05-07T06:58:39.803Z,817.02
2018-05-07T06:59:39.819Z,817.02
2018-05-07T07:00:39.833Z,817.01
2018-05-07T07:01:39.848Z,817.03
2018-05-07T07:02:40.056Z,817.03
2018-05-07T07:03:39.878Z,817.01
2018-05-07T07:04:39.892Z,817.02
2018-05-07T07:05:39.908Z,816.99
2018-05-07T07:06:39.924Z,817.01
2018-05-07T07:07:39.938Z,817.00
2018-05-07T07:08:40.166Z,817.01
2018-05-07T07:09:39.966Z,817.01
2018-05-07T07:10:39.984Z,817.02
2018-05-07T07:11:39.996Z,817.01
2018-05-07T07:12:40.013Z,817.01
2018-05-07T07:13:40.026Z,817.08
2018-05-07T07:14:40.041Z,817.02
2018-05-07T07:15:40.060Z,817.04
2018-05-07T07:16:40.072Z,817.04
2018-05-07T07:17:40.092Z,817.06
2018-05-07T07:18:40.102Z,817.06
2018-05-07T07:19:40.115Z,817.06
2018-05-07T07:20:40.129Z,817.07
2018-05-07T07:21:40.144Z,817.05
2018-05-07T07:22:40.159Z,817.05
2018-05-07T07:23:40.173Z,817.04
2018-05-07T07:24:40.189Z,817.05
2018-05-07T07:25:40.204Z,817.01
2018-05-07T07:26:40.221Z,817.00
2018-05-07T07:27:40.232Z,817.01
2018-05-07T07:28:40.250Z,816.97
2018-05-07T07:29:40.260Z,817.00
2018-05-07T07:30:40.275Z,816.99
2018-05-07T07:31:40.295Z,816.96
2018-05-07T07:32:40.306Z,816.97
2018-05-07T07:33:40.324Z,816.98
2018-05-07T07:34:40.336Z,816.99
2018-05-07T07:35:40.350Z,816.95
2018-05-07T07:36:40.364Z,816.95
2018-05-07T07:37:40.381Z,816.97
2018-05-07T07:38:40.396Z,816.97
2018-05-07T07:39:40.411Z,816.97
2018-05-07T07:40:40.424Z,816.96
2018-05-07T07:41:40.439Z,816.98
2018-05-07T07:42:40.454Z,816.96
2018-05-07T07:43:40.468Z,816.93
2018-05-07T07:44:40.482Z,816.91
2018-05-07T07:45:40.498Z,816.95
2018-05-07T07:46:40.514Z,816.93
2018-05-07T07:47:40.528Z,816.93
2018-05-07T07:48:40.543Z,816.94
2018-05-07T07:49:40.557Z,816.96
2018-05-07T07:50:40.573Z,816.91
2018-05-07T07:51:40.590Z,816.92
2018-05-07T07:52:40.607Z,816.88
2018-05-07T07:53:40.623Z,816.91
2018-05-07T07:54:40.633Z,816.88
2018-05-07T07:55:40.648Z,816.92
2018-05-07T07:56:40.663Z,816.87
2018-05-07T07:57:40.678Z,816.90
2018-05-07T07:58:40.694Z,816.92
2018-05-07T07:59:40.711Z,816.92
2018-05-07T08:00:40.723Z,816.92
2018-05-07T08:01:40.791Z,816.91
2018-05-07T08:02:40.756Z,816.90
2018-05-07T08:03:40.770Z,816.93
2018-05-07T08:04:40.782Z,816.92
2018-05-07T08:05:40.801Z,816.88
2018-05-07T08:06:40.813Z,816.88
2018-05-07T08:07:40.829Z,816.91
2018-05-07T08:08:40.854Z,816.87
2018-05-07T08:09:40.859Z,816.90
2018-05-07T08:10:40.875Z,816.90
2018-05-07T08:11:40.891Z,816.90
2018-05-07T08:12:40.904Z,816.90
2018-05-07T08:13:40.918Z,816.89
2018-05-07T08:14:40.937Z,816.90
2018-05-07T08:15:40.949Z,816.88
2018-05-07T08:16:40.979Z,816.88
2018-05-07T08:17:40.980Z,816.87
2018-05-07T08:18:41.001Z,816.88
2018-05-07T08:19:41.014Z,816.87
2018-05-07T08:20:41.031Z,816.93
2018-05-07T08:21:41.043Z,816.83
2018-05-07T08:22:41.057Z,816.89
2018-05-07T08:23:41.074Z,816.87
2018-05-07T08:24:41.112Z,816.88
2018-05-07T08:25:41.105Z,816.89
2018-05-07T08:26:41.118Z,816.88
2018-05-07T08:27:41.135Z,816.86
2018-05-07T08:28:41.149Z,816.87
2018-05-07T08:29:41.167Z,816.83
2018-05-07T08:30:41.180Z,816.85
2018-05-07T08:31:41.195Z,816.86
2018-05-07T08:32:41.211Z,816.86
2018-05-07T08:33:41.229Z,816.89
2018-05-07T08:34:41.242Z,816.89
2018-05-07T08:35:41.257Z,816.83
2018-05-07T08:36:41.345Z,816.87
2018-05-07T08:37:41.289Z,816.89
2018-05-07T08:38:41.303Z,816.89
2018-05-07T08:39:41.322Z,816.89
2018-05-07T08:40:41.336Z,816.89
2018-05-07T08:41:41.350Z,816.91
2018-05-07T08:42:41.367Z,816.90
2018-05-07T08:43:41.381Z,816.91
2018-05-07T08:44:41.398Z,816.90
2018-05-07T08:45:41.412Z,816.89
2018-05-07T08:46:41.430Z,816.90
2018-05-07T08:47:41.450Z,816.91
2018-05-07T08:48:41.460Z,816.91
2018-05-07T08:49:41.478Z,816.93
2018-05-07T08:50:41.494Z,816.96
2018-05-07T08:51:41.509Z,816.95
2018-05-07T08:52:41.625Z,816.92
2018-05-07T08:53:41.540Z,816.93
2018-05-07T08:54:41.557Z,816.93
2018-05-07T08:55:41.573Z,816.93
2018-05-07T08:56:41.590Z,816.95
2018-05-07T08:57:41.607Z,816.94
2018-05-07T08:58:41.622Z,816.92
2018-05-07T08:59:41.639Z,816.92
2018-05-07T09:00:41.653Z,816.92
2018-05-07T09:01:41.672Z,816.90
2018-05-07T09:02:41.687Z,816.89
2018-05-07T09:03:41.705Z,816.92
2018-05-07T09:04:41.720Z,816.89
2018-05-07T09:05:41.736Z,816.87
2018-05-07T09:06:41.751Z,816.86
2018-05-07T09:07:41.767Z,816.85
2018-05-07T09:08:41.783Z,816.89
2018-05-07T09:09:41.799Z,816.87
2018-05-07T09:10:41.817Z,816.87
2018-05-07T09:11:41.832Z,816.89
2018-05-07T09:12:41.847Z,816.87
2018-05-07T09:13:41.935Z,816.89
2018-05-07T09:14:41.878Z,816.88
2018-05-07T09:15:41.896Z,816.87
2018-05-07T09:16:41.911Z,816.86
2018-05-07T09:17:41.925Z,816.85
2018-05-07T09:18:41.942Z,816.85
2018-05-07T09:19:41.968Z,816.83
2018-05-07T09:20:41.973Z,816.77
2018-05-07T09:21:41.990Z,816.81
2018-05-07T09:22:42.008Z,816.76
2018-05-07T09:23:42.025Z,816.80
2018-05-07T09:24:42.064Z,816.77
2018-05-07T09:25:42.054Z,816.81
2018-05-07T09:26:42.071Z,816.73
2018-05-07T09:27:42.089Z,816.74
2018-05-07T09:28:42.104Z,816.71
2018-05-07T09:29:42.118Z,816.79
2018-05-07T09:30:42.137Z,816.78
2018-05-07T09:31:42.154Z,816.80
2018-05-07T09:32:42.166Z,816.82
2018-05-07T09:33:42.182Z,816.71
2018-05-07T09:34:42.202Z,816.72
2018-05-07T09:35:42.219Z,816.74
2018-05-07T09:36:42.231Z,816.73
2018-05-07T09:37:42.248Z,816.71
2018-05-07T09:38:42.270Z,816.67
2018-05-07T09:39:42.280Z,816.68
2018-05-07T09:40:42.303Z,816.67
2018-05-07T09:41:42.314Z,816.72
2018-05-07T09:42:42.329Z,816.69
2018-05-07T09:43:42.345Z,816.72
2018-05-07T09:44:42.365Z,816.70
2018-05-07T09:45:42.380Z,816.65
2018-05-07T09:46:42.397Z,816.66
2018-05-07T09:47:42.415Z,816.66
2018-05-07T09:48:42.431Z,816.68
2018-05-07T09:49:42.455Z,816.72
2018-05-07T09:50:42.465Z,816.71
2018-05-07T09:51:42.479Z,816.70
2018-05-07T09:52:42.497Z,816.67
2018-05-07T09:53:42.513Z,816.70
2018-05-07T09:54:42.532Z,816.66
2018-05-07T09:55:42.618Z,816.69
2018-05-07T09:56:42.598Z,816.68
2018-05-07T09:57:42.582Z,816.67
2018-05-07T09:58:42.600Z,816.65
2018-05-07T09:59:42.617Z,816.61
2018-05-07T10:00:42.635Z,816.64
2018-05-07T10:01:42.656Z,816.61
2018-05-07T10:02:42.670Z,816.69
2018-05-07T10:03:42.687Z,816.69
2018-05-07T10:04:42.705Z,816.69
2018-05-07T10:05:42.722Z,816.62
2018-05-07T10:06:42.741Z,816.69
2018-05-07T10:07:42.758Z,816.67
2018-05-07T10:08:42.775Z,816.64
2018-05-07T10:09:42.791Z,816.68
2018-05-07T10:10:42.809Z,816.64
2018-05-07T10:11:42.826Z,816.62
2018-05-07T10:12:42.849Z,816.59
2018-05-07T10:13:42.862Z,816.63
2018-05-07T10:14:42.880Z,816.64
2018-05-07T10:15:42.898Z,816.65
2018-05-07T10:16:42.915Z,816.61
2018-05-07T10:17:42.934Z,816.60
2018-05-07T10:18:42.959Z,816.60
2018-05-07T10:19:42.970Z,816.54
2018-05-07T10:20:42.989Z,816.53
2018-05-07T10:21:43.005Z,816.52
2018-05-07T10:22:43.027Z,816.51
2018-05-07T10:23:43.044Z,816.52
2018-05-07T10:24:43.058Z,816.56
2018-05-07T10:25:43.077Z,816.52
2018-05-07T10:26:43.094Z,816.52
2018-05-07T10:27:43.113Z,816.55
2018-05-07T10:28:43.129Z,816.49
2018-05-07T10:29:43.152Z,816.45
2018-05-07T10:30:43.167Z,816.45
2018-05-07T10:31:43.184Z,816.46
2018-05-07T10:32:43.205Z,816.54
2018-05-07T10:33:43.220Z,816.48
2018-05-07T10:34:43.240Z,816.46
2018-05-07T10:35:43.261Z,816.46
2018-05-07T10:36:43.275Z,816.44
2018-05-07T10:37:43.292Z,816.49
2018-05-07T10:39:43.328Z,816.44
2018-05-07T10:40:43.346Z,816.37
2018-05-07T10:41:43.362Z,816.32
2018-05-07T10:42:43.457Z,816.34
2018-05-07T10:43:43.400Z,816.29
2018-05-07T10:44:43.418Z,816.30
2018-05-07T10:45:43.435Z,816.28
2018-05-07T10:46:43.454Z,816.19
2018-05-07T10:47:43.472Z,816.31
2018-05-07T10:48:43.489Z,816.22
2018-05-07T10:49:43.507Z,816.16
2018-05-07T10:50:43.526Z,816.21
2018-05-07T10:51:43.543Z,816.22
2018-05-07T10:52:43.562Z,816.20
2018-05-07T10:53:43.579Z,816.24
2018-05-07T10:54:43.602Z,816.20
2018-05-07T10:55:43.623Z,816.19
2018-05-07T10:56:43.635Z,816.16
2018-05-07T10:57:43.652Z,816.15
2018-05-07T10:58:43.670Z,816.21
2018-05-07T10:59:43.689Z,816.18
2018-05-07T11:00:43.708Z,816.16
2018-05-07T11:01:43.764Z,816.12
2018-05-07T11:02:43.742Z,816.13
2018-05-07T11:03:43.761Z,816.12
2018-05-07T11:04:43.780Z,816.17
2018-05-07T11:05:43.796Z,816.17
2018-05-07T11:06:43.815Z,816.09
2018-05-07T11:07:43.832Z,816.17
2018-05-07T11:08:43.852Z,816.10
2018-05-07T11:09:43.869Z,816.05
2018-05-07T11:10:43.885Z,816.06
2018-05-07T11:11:43.904Z,816.13
2018-05-07T11:12:43.929Z,816.07
2018-05-07T11:13:43.939Z,816.01
2018-05-07T11:14:43.957Z,816.08
2018-05-07T11:15:43.975Z,816.04
2018-05-07T11:16:43.993Z,816.01
2018-05-07T11:17:44.017Z,815.94
2018-05-07T11:18:44.030Z,816.04
2018-05-07T11:19:44.118Z,815.94
2018-05-07T11:20:44.065Z,815.97
2018-05-07T11:21:44.086Z,816.03
2018-05-07T11:22:44.103Z,815.97
2018-05-07T11:23:44.120Z,815.99
2018-05-07T11:24:44.137Z,815.93
2018-05-07T11:25:44.156Z,815.91
2018-05-07T11:26:44.175Z,815.91
2018-05-07T11:27:44.195Z,815.90
2018-05-07T11:28:44.214Z,815.84
2018-05-07T11:29:44.231Z,815.93
2018-05-07T11:30:44.252Z,815.85
2018-05-07T11:31:44.268Z,815.85
2018-05-07T11:32:44.288Z,815.78
2018-05-07T11:33:44.306Z,815.77
2018-05-07T11:34:44.323Z,815.69
2018-05-07T11:35:44.340Z,815.78
2018-05-07T11:36:44.362Z,815.71
2018-05-07T11:37:44.380Z,815.75
2018-05-07T11:38:44.398Z,815.75
2018-05-07T11:39:44.417Z,815.85
2018-05-07T11:40:44.435Z,815.86
2018-05-07T11:41:44.455Z,815.76
2018-05-07T11:42:44.474Z,815.83
2018-05-07T11:43:44.492Z,815.75
2018-05-07T11:44:44.513Z,815.75
2018-05-07T11:45:44.529Z,815.75
2018-05-07T11:46:44.547Z,815.75
2018-05-07T11:47:44.589Z,815.72
2018-05-07T11:48:44.581Z,815.67
2018-05-07T11:49:44.603Z,815.69
2018-05-07T11:50:44.620Z,815.70
2018-05-07T11:51:44.639Z,815.70
2018-05-07T11:52:44.656Z,815.70
2018-05-07T11:53:44.675Z,815.73
2018-05-07T11:54:44.693Z,815.71
2018-05-07T11:55:44.711Z,815.71
2018-05-07T11:56:44.729Z,815.64
2018-05-07T11:57:44.753Z,815.64
2018-05-07T11:58:44.764Z,815.67
2018-05-07T11:59:44.785Z,815.66
2018-05-07T12:00:44.803Z,815.67
2018-05-07T12:01:44.825Z,815.66
2018-05-07T12:02:44.912Z,815.61
2018-05-07T12:03:44.857Z,815.65
2018-05-07T12:04:44.872Z,815.60
2018-05-07T12:05:44.892Z,815.64
2018-05-07T12:06:44.910Z,815.65
2018-05-07T12:07:44.927Z,815.64
2018-05-07T12:08:44.944Z,815.66
2018-05-07T12:09:44.963Z,815.66
2018-05-07T12:10:44.982Z,815.64
2018-05-07T12:11:44.998Z,815.66
2018-05-07T12:12:45.022Z,815.72
2018-05-07T12:13:45.035Z,815.70
2018-05-07T12:14:45.059Z,815.71
2018-05-07T12:15:45.170Z,815.77
2018-05-07T12:16:45.089Z,815.75
2018-05-07T12:17:45.105Z,815.75
2018-05-07T12:18:45.124Z,815.76
2018-05-07T12:19:45.143Z,815.75
2018-05-07T12:20:45.160Z,815.79
2018-05-07T12:21:45.175Z,815.72
2018-05-07T12:22:45.195Z,815.74
2018-05-07T12:23:45.213Z,815.74
2018-05-07T12:24:45.230Z,815.66
2018-05-07T12:25:45.246Z,815.66
2018-05-07T12:26:45.264Z,815.65
2018-05-07T12:27:45.288Z,815.64
2018-05-07T12:28:45.300Z,815.65
2018-05-07T12:29:45.321Z,815.65